createdAt,value
2022-12-31T08:32:48.150Z,17.98
2022-12-31T08:32:59.439Z,18.00
2022-12-31T08:33:11.004Z,18.05
2022-12-31T08:33:22.292Z,18.06
2022-12-31T08:33:33.846Z,18.09
2022-12-31T08:33:45.865Z,18.12
2022-12-31T08:34:00.727Z,18.12
2022-12-31T08:34:09.086Z,18.11
2022-12-31T08:34:20.375Z,18.14
2022-12-31T08:34:31.915Z,18.17
2022-12-31T08:34:43.209Z,18.16
2022-12-31T08:34:54.759Z,18.18
2022-12-31T08:35:06.048Z,18.20
2022-12-31T08:35:17.611Z,18.22
2022-12-31T08:35:28.897Z,18.23
2022-12-31T08:35:40.433Z,18.24
2022-12-31T08:35:51.713Z,18.25
2022-12-31T08:36:03.248Z,18.27
2022-12-31T08:36:14.539Z,18.28
2022-12-31T08:36:26.087Z,18.29
2022-12-31T08:36:37.378Z,18.31
2022-12-31T08:36:48.935Z,18.32
2022-12-31T08:37:00.240Z,18.32
2022-12-31T08:37:11.799Z,18.34
2022-12-31T08:37:23.083Z,18.35
2022-12-31T08:37:34.644Z,18.36
2022-12-31T08:37:45.956Z,18.37
2022-12-31T08:37:57.548Z,18.38
2022-12-31T08:38:08.855Z,18.39
2022-12-31T08:38:20.413Z,18.41
2022-12-31T08:38:31.706Z,18.42
2022-12-31T08:38:43.267Z,18.43
2022-12-31T08:38:54.573Z,18.44
2022-12-31T08:39:06.144Z,18.46
2022-12-31T08:39:17.423Z,18.46
2022-12-31T08:39:28.981Z,18.47
2022-12-31T08:39:40.303Z,18.49
2022-12-31T08:39:51.867Z,18.50
2022-12-31T08:40:03.163Z,18.50
2022-12-31T08:40:14.745Z,18.52
2022-12-31T08:40:26.068Z,18.53
2022-12-31T08:40:37.600Z,18.54
2022-12-31T08:40:48.963Z,18.55
2022-12-31T08:41:00.513Z,18.56
2022-12-31T08:41:11.793Z,18.56
2022-12-31T08:41:23.329Z,18.57
2022-12-31T08:41:39.109Z,18.59
2022-12-31T08:41:46.558Z,18.56
2022-12-31T08:41:57.847Z,18.59
2022-12-31T08:42:09.385Z,18.61
2022-12-31T08:42:20.670Z,18.62
2022-12-31T08:42:32.209Z,18.63
2022-12-31T08:42:43.514Z,18.64
2022-12-31T08:42:55.080Z,18.65
2022-12-31T08:43:06.410Z,18.65
2022-12-31T08:43:17.957Z,18.67
2022-12-31T08:43:29.250Z,18.67
2022-12-31T08:43:40.798Z,18.69
2022-12-31T08:43:52.102Z,18.69
2022-12-31T08:44:03.664Z,18.70
2022-12-31T08:44:14.961Z,18.71
2022-12-31T08:44:26.521Z,18.72
2022-12-31T08:44:37.809Z,18.73
2022-12-31T08:44:49.385Z,18.74
2022-12-31T08:45:00.680Z,18.75
2022-12-31T08:45:12.224Z,18.76
2022-12-31T08:45:23.675Z,18.76
2022-12-31T08:45:35.340Z,18.77
2022-12-31T08:45:46.680Z,18.78
2022-12-31T08:45:58.308Z,18.79
2022-12-31T08:46:09.645Z,18.80
2022-12-31T08:46:21.226Z,18.81
2022-12-31T08:46:32.598Z,18.81
2022-12-31T08:46:44.138Z,18.82
2022-12-31T08:46:55.428Z,18.82
2022-12-31T08:47:06.975Z,18.83
2022-12-31T08:47:18.304Z,18.85
2022-12-31T08:47:34.132Z,18.85
2022-12-31T08:47:41.788Z,18.84
2022-12-31T08:47:58.095Z,18.86
2022-12-31T08:48:05.017Z,18.84
2022-12-31T08:48:16.351Z,18.87
2022-12-31T08:48:27.889Z,18.88
2022-12-31T08:48:39.186Z,18.89
2022-12-31T08:48:50.736Z,18.91
2022-12-31T08:49:02.056Z,18.92
2022-12-31T08:49:13.592Z,18.92
2022-12-31T08:49:24.879Z,18.93
2022-12-31T08:49:36.440Z,18.94
2022-12-31T08:49:47.741Z,18.94
2022-12-31T08:49:59.280Z,18.96
2022-12-31T08:50:10.590Z,18.96
2022-12-31T08:50:22.141Z,18.97
2022-12-31T08:50:33.434Z,18.98
2022-12-31T08:50:44.998Z,18.99
2022-12-31T08:50:56.321Z,18.99
2022-12-31T08:51:07.865Z,19.00
2022-12-31T08:51:19.140Z,19.01
2022-12-31T08:51:30.692Z,19.01
2022-12-31T08:51:41.983Z,19.02
2022-12-31T08:51:53.540Z,19.03
2022-12-31T08:52:04.835Z,19.04
2022-12-31T08:52:16.394Z,19.05
2022-12-31T08:52:27.675Z,19.05
2022-12-31T08:52:39.219Z,19.05
2022-12-31T08:52:50.500Z,19.07
2022-12-31T08:53:02.051Z,19.08
2022-12-31T08:53:13.335Z,19.09
2022-12-31T08:53:24.897Z,19.10
2022-12-31T08:53:36.193Z,19.10
2022-12-31T08:53:47.746Z,19.11
2022-12-31T08:53:59.042Z,19.12
2022-12-31T08:54:10.585Z,19.12
2022-12-31T08:54:21.879Z,19.13
2022-12-31T08:54:33.436Z,19.14
2022-12-31T08:54:44.726Z,19.14
2022-12-31T08:54:56.294Z,19.16
2022-12-31T08:55:07.588Z,19.16
2022-12-31T08:55:19.148Z,19.17
2022-12-31T08:55:30.449Z,19.18
2022-12-31T08:55:41.996Z,19.19
2022-12-31T08:55:53.283Z,19.20
2022-12-31T08:56:04.835Z,19.20
2022-12-31T08:56:16.124Z,19.20
2022-12-31T08:56:27.663Z,19.22
2022-12-31T08:56:38.964Z,19.22
2022-12-31T08:56:50.862Z,19.23
2022-12-31T08:57:02.181Z,19.24
2022-12-31T08:57:13.741Z,19.25
2022-12-31T08:57:25.038Z,19.25
2022-12-31T08:57:36.590Z,19.26
2022-12-31T08:57:47.890Z,19.26
2022-12-31T08:57:59.447Z,19.27
2022-12-31T08:58:10.731Z,19.29
2022-12-31T08:58:22.263Z,19.29
2022-12-31T08:58:33.585Z,19.29
2022-12-31T08:58:45.117Z,19.31
2022-12-31T08:58:56.396Z,19.31
2022-12-31T08:59:07.951Z,19.32
2022-12-31T08:59:19.239Z,19.33
2022-12-31T08:59:30.790Z,19.34
2022-12-31T08:59:42.083Z,19.33
2022-12-31T08:59:53.639Z,19.34
2022-12-31T09:00:04.944Z,19.35
2022-12-31T09:00:16.487Z,19.36
2022-12-31T09:00:27.783Z,19.37
2022-12-31T09:00:39.376Z,19.38
2022-12-31T09:00:50.742Z,19.38
2022-12-31T09:01:02.457Z,19.39
2022-12-31T09:01:13.948Z,19.39
2022-12-31T09:01:25.731Z,19.40
2022-12-31T09:01:37.189Z,19.41
2022-12-31T09:01:48.916Z,19.42
2022-12-31T09:02:00.561Z,19.42
2022-12-31T09:02:12.215Z,19.43
2022-12-31T09:02:23.545Z,19.44
2022-12-31T09:02:35.106Z,19.45
2022-12-31T09:02:48.351Z,19.45
2022-12-31T09:02:57.681Z,19.45
2022-12-31T09:03:09.259Z,19.47
2022-12-31T09:03:20.538Z,19.47
2022-12-31T09:03:32.083Z,19.49
2022-12-31T09:03:43.438Z,19.48
2022-12-31T09:03:55.026Z,19.50
2022-12-31T09:04:06.383Z,19.50
2022-12-31T09:04:17.974Z,19.51
2022-12-31T09:04:29.348Z,19.51
2022-12-31T09:04:40.896Z,19.52
2022-12-31T09:04:52.184Z,19.53
2022-12-31T09:05:03.746Z,19.54
2022-12-31T09:05:15.039Z,19.54
2022-12-31T09:05:26.609Z,19.55
2022-12-31T09:05:37.945Z,19.56
2022-12-31T09:05:49.496Z,19.56
2022-12-31T09:06:00.778Z,19.58
2022-12-31T09:06:12.317Z,19.58
2022-12-31T09:06:23.595Z,19.58
2022-12-31T09:06:35.198Z,19.59
2022-12-31T09:06:46.484Z,19.60
2022-12-31T09:06:58.023Z,19.61
2022-12-31T09:07:09.320Z,19.61
2022-12-31T09:07:20.862Z,19.62
2022-12-31T09:07:32.148Z,19.62
2022-12-31T09:07:43.692Z,19.63
2022-12-31T09:07:54.990Z,19.64
2022-12-31T09:08:06.540Z,19.64
2022-12-31T09:08:17.848Z,19.65
2022-12-31T09:08:29.397Z,19.66
2022-12-31T09:08:40.709Z,19.67
2022-12-31T09:08:52.313Z,19.67
2022-12-31T09:09:03.601Z,19.67
2022-12-31T09:09:15.142Z,19.68
2022-12-31T09:09:26.435Z,19.69
2022-12-31T09:09:37.995Z,19.69
2022-12-31T09:09:49.277Z,19.70
2022-12-31T09:10:00.824Z,19.72
2022-12-31T09:10:12.105Z,19.72
2022-12-31T09:10:23.642Z,19.73
2022-12-31T09:10:34.936Z,19.74
2022-12-31T09:10:46.475Z,19.75
2022-12-31T09:10:57.766Z,19.75
2022-12-31T09:11:09.311Z,19.75
2022-12-31T09:11:23.126Z,19.76
2022-12-31T09:11:30.620Z,19.74
2022-12-31T09:11:41.902Z,19.76
2022-12-31T09:11:53.445Z,19.77
2022-12-31T09:12:04.735Z,19.78
2022-12-31T09:12:16.280Z,19.78
2022-12-31T09:12:27.572Z,19.79
2022-12-31T09:12:39.112Z,19.80
2022-12-31T09:12:50.392Z,19.80
2022-12-31T09:13:01.937Z,19.81
2022-12-31T09:13:13.248Z,19.81
2022-12-31T09:13:24.819Z,19.82
2022-12-31T09:13:36.129Z,19.83
2022-12-31T09:13:47.706Z,19.83
2022-12-31T09:13:59.036Z,19.84
2022-12-31T09:14:10.600Z,19.85
2022-12-31T09:14:21.900Z,19.85
2022-12-31T09:14:33.446Z,19.86
2022-12-31T09:14:44.747Z,19.87
2022-12-31T09:14:56.293Z,19.87
2022-12-31T09:15:07.580Z,19.88
2022-12-31T09:15:19.114Z,19.89
2022-12-31T09:15:30.387Z,19.89
2022-12-31T09:15:41.932Z,19.89
2022-12-31T09:15:53.225Z,19.89
2022-12-31T09:16:04.839Z,19.91
2022-12-31T09:16:16.279Z,19.91
2022-12-31T09:16:27.960Z,19.92
2022-12-31T09:16:39.335Z,19.93
2022-12-31T09:16:50.966Z,19.93
2022-12-31T09:17:02.304Z,19.93
2022-12-31T09:17:13.855Z,19.94
2022-12-31T09:17:25.143Z,19.94
2022-12-31T09:17:36.676Z,19.95
2022-12-31T09:17:47.974Z,19.95
2022-12-31T09:17:59.536Z,19.96
2022-12-31T09:18:10.816Z,19.97
2022-12-31T09:18:22.345Z,19.97
2022-12-31T09:18:33.615Z,19.97
2022-12-31T09:18:45.158Z,19.98
2022-12-31T09:18:56.438Z,19.98
2022-12-31T09:19:08.011Z,19.99
2022-12-31T09:19:19.296Z,19.99
2022-12-31T09:19:30.848Z,20.00
2022-12-31T09:19:42.135Z,20.00
2022-12-31T09:19:53.692Z,20.02
2022-12-31T09:20:05.003Z,20.02
2022-12-31T09:20:16.555Z,20.03
2022-12-31T09:20:41.951Z,20.03
2022-12-31T09:20:44.391Z,20.01
2022-12-31T09:20:51.705Z,20.01
2022-12-31T09:21:02.994Z,20.03
2022-12-31T09:21:14.580Z,20.04
2022-12-31T09:21:25.869Z,20.04
2022-12-31T09:21:37.403Z,20.05
2022-12-31T09:21:48.702Z,20.06
2022-12-31T09:22:00.259Z,20.06
2022-12-31T09:22:11.567Z,20.07
2022-12-31T09:22:23.129Z,20.08
2022-12-31T09:22:34.424Z,20.08
2022-12-31T09:22:45.961Z,20.09
2022-12-31T09:22:57.237Z,20.10
2022-12-31T09:23:08.786Z,20.09
2022-12-31T09:23:20.068Z,20.10
2022-12-31T09:23:31.609Z,20.10
2022-12-31T09:23:42.898Z,20.11
2022-12-31T09:23:54.449Z,20.12
2022-12-31T09:24:09.318Z,20.12
2022-12-31T09:24:16.767Z,20.10
2022-12-31T09:24:28.046Z,20.11
2022-12-31T09:24:39.599Z,20.13
2022-12-31T09:24:50.872Z,20.13
2022-12-31T09:25:02.408Z,20.13
2022-12-31T09:25:13.683Z,20.14
2022-12-31T09:25:25.252Z,20.15
2022-12-31T09:25:36.541Z,20.15
2022-12-31T09:25:48.102Z,20.15
2022-12-31T09:25:59.398Z,20.16
2022-12-31T09:26:10.951Z,20.17
2022-12-31T09:26:22.243Z,20.17
2022-12-31T09:26:33.787Z,20.17
2022-12-31T09:26:45.081Z,20.18
2022-12-31T09:26:56.659Z,20.18
2022-12-31T09:27:07.945Z,20.19
2022-12-31T09:27:25.546Z,20.20
2022-12-31T09:27:31.420Z,20.18
2022-12-31T09:27:42.724Z,20.20
2022-12-31T09:27:54.268Z,20.20
2022-12-31T09:28:05.548Z,20.21
2022-12-31T09:28:17.104Z,20.21
2022-12-31T09:28:28.410Z,20.22
2022-12-31T09:28:39.965Z,20.23
2022-12-31T09:28:51.277Z,20.24
2022-12-31T09:29:02.824Z,20.24
2022-12-31T09:29:14.119Z,20.24
2022-12-31T09:29:25.696Z,20.25
2022-12-31T09:29:36.981Z,20.25
2022-12-31T09:29:48.517Z,20.26
2022-12-31T09:29:59.804Z,20.26
2022-12-31T09:30:11.357Z,20.26
2022-12-31T09:30:22.648Z,20.27
2022-12-31T09:30:34.199Z,20.28
2022-12-31T09:30:45.482Z,20.28
2022-12-31T09:30:57.029Z,20.29
2022-12-31T09:31:08.322Z,20.29
2022-12-31T09:31:19.920Z,20.29
2022-12-31T09:31:31.254Z,20.30
2022-12-31T09:31:42.869Z,20.30
2022-12-31T09:31:54.268Z,20.31
2022-12-31T09:32:05.879Z,20.31
2022-12-31T09:32:17.191Z,20.31
2022-12-31T09:32:28.730Z,20.32
2022-12-31T09:32:40.033Z,20.32
2022-12-31T09:32:56.879Z,20.33
2022-12-31T09:33:03.547Z,20.32
2022-12-31T09:33:14.872Z,20.32
2022-12-31T09:33:26.434Z,20.33
2022-12-31T09:33:37.723Z,20.33
2022-12-31T09:33:49.264Z,20.34
2022-12-31T09:34:00.549Z,20.35
2022-12-31T09:34:12.094Z,20.36
2022-12-31T09:34:23.390Z,20.36
2022-12-31T09:34:35.141Z,20.37
2022-12-31T09:34:46.412Z,20.37
2022-12-31T09:34:57.968Z,20.38
2022-12-31T09:35:09.252Z,20.38
2022-12-31T09:35:20.793Z,20.38
2022-12-31T09:35:32.093Z,20.39
2022-12-31T09:35:43.642Z,20.39
2022-12-31T09:35:54.935Z,20.40
2022-12-31T09:36:06.484Z,20.40
2022-12-31T09:36:17.774Z,20.40
2022-12-31T09:36:29.314Z,20.41
2022-12-31T09:36:40.590Z,20.42
2022-12-31T09:36:52.145Z,20.42
2022-12-31T09:37:03.444Z,20.42
2022-12-31T09:37:14.988Z,20.43
2022-12-31T09:37:26.264Z,20.43
2022-12-31T09:37:37.807Z,20.43
2022-12-31T09:37:49.088Z,20.44
2022-12-31T09:38:00.629Z,20.45
2022-12-31T09:38:12.144Z,20.44
2022-12-31T09:38:23.725Z,20.45
2022-12-31T09:38:35.006Z,20.45
2022-12-31T09:38:46.558Z,20.45
2022-12-31T09:38:57.854Z,20.46
2022-12-31T09:39:09.397Z,20.46
2022-12-31T09:39:20.680Z,20.47
2022-12-31T09:39:32.231Z,20.47
2022-12-31T09:39:43.564Z,20.48
2022-12-31T09:39:55.118Z,20.48
2022-12-31T09:40:06.419Z,20.49
2022-12-31T09:40:17.970Z,20.49
2022-12-31T09:40:29.264Z,20.49
2022-12-31T09:40:40.835Z,20.51
2022-12-31T09:40:52.129Z,20.50
2022-12-31T09:41:03.678Z,20.51
2022-12-31T09:41:15.003Z,20.51
2022-12-31T09:41:26.543Z,20.52
2022-12-31T09:41:37.849Z,20.52
2022-12-31T09:41:49.401Z,20.53
2022-12-31T09:42:00.689Z,20.53
2022-12-31T09:42:12.228Z,20.53
2022-12-31T09:42:23.509Z,20.54
2022-12-31T09:42:35.064Z,20.54
2022-12-31T09:42:46.363Z,20.54
2022-12-31T09:42:57.905Z,20.55
2022-12-31T09:43:09.192Z,20.55
2022-12-31T09:43:20.753Z,20.56
2022-12-31T09:43:32.046Z,20.56
2022-12-31T09:43:43.593Z,20.56
2022-12-31T09:44:00.697Z,20.57
2022-12-31T09:44:06.806Z,20.55
2022-12-31T09:44:18.181Z,20.56
2022-12-31T09:44:29.731Z,20.57
2022-12-31T09:44:41.025Z,20.58
2022-12-31T09:44:52.616Z,20.58
2022-12-31T09:45:03.923Z,20.58
2022-12-31T09:45:15.493Z,20.59
2022-12-31T09:45:26.930Z,20.59
2022-12-31T09:45:38.630Z,20.60
2022-12-31T09:45:49.983Z,20.60
2022-12-31T09:46:01.584Z,20.60
2022-12-31T09:46:12.965Z,20.60
2022-12-31T09:46:24.566Z,20.61
2022-12-31T09:46:35.857Z,20.61
2022-12-31T09:46:47.400Z,20.62
2022-12-31T09:46:58.689Z,20.63
2022-12-31T09:47:10.249Z,20.63
2022-12-31T09:47:21.551Z,20.63
2022-12-31T09:47:33.088Z,20.64
2022-12-31T09:47:44.371Z,20.64
2022-12-31T09:47:55.930Z,20.64
2022-12-31T09:48:07.252Z,20.65
2022-12-31T09:48:18.806Z,20.65
2022-12-31T09:48:30.090Z,20.65
2022-12-31T09:48:41.629Z,20.66
2022-12-31T09:48:52.905Z,20.66
2022-12-31T09:49:04.452Z,20.66
2022-12-31T09:49:15.759Z,20.67
2022-12-31T09:49:27.323Z,20.67
2022-12-31T09:49:38.608Z,20.67
2022-12-31T09:49:50.143Z,20.68
2022-12-31T09:50:01.439Z,20.68
2022-12-31T09:50:12.986Z,20.69
2022-12-31T09:50:24.277Z,20.69
2022-12-31T09:50:35.831Z,20.70
2022-12-31T09:50:47.143Z,20.69
2022-12-31T09:50:58.719Z,20.70
2022-12-31T09:51:10.036Z,20.71
2022-12-31T09:51:25.218Z,20.71
2022-12-31T09:51:32.653Z,20.70
2022-12-31T09:51:43.967Z,20.71
2022-12-31T09:51:55.516Z,20.72
2022-12-31T09:52:06.802Z,20.72
2022-12-31T09:52:18.364Z,20.73
2022-12-31T09:52:29.641Z,20.73
2022-12-31T09:52:41.192Z,20.73
2022-12-31T09:52:52.481Z,20.73
2022-12-31T09:53:04.029Z,20.74
2022-12-31T09:53:15.321Z,20.74
2022-12-31T09:53:26.880Z,20.75
2022-12-31T09:53:38.162Z,20.75
2022-12-31T09:53:49.713Z,20.75
2022-12-31T09:54:01.005Z,20.76
2022-12-31T09:54:12.577Z,20.76
2022-12-31T09:54:23.905Z,20.76
2022-12-31T09:54:35.475Z,20.77
2022-12-31T09:54:46.759Z,20.77
2022-12-31T09:54:58.315Z,20.77
2022-12-31T09:55:09.639Z,20.78
2022-12-31T09:55:21.207Z,20.79
2022-12-31T09:55:32.503Z,20.78
2022-12-31T09:55:44.049Z,20.79
2022-12-31T09:55:55.358Z,20.78
2022-12-31T09:56:06.916Z,20.80
2022-12-31T09:56:18.212Z,20.80
2022-12-31T09:56:29.769Z,20.81
2022-12-31T09:56:41.060Z,20.81
2022-12-31T09:56:57.211Z,20.81
2022-12-31T09:57:04.576Z,20.80
2022-12-31T09:57:15.898Z,20.81
2022-12-31T09:57:27.438Z,20.82
2022-12-31T09:57:38.722Z,20.83
2022-12-31T09:57:50.274Z,20.83
2022-12-31T09:58:01.567Z,20.83
2022-12-31T09:58:13.121Z,20.84
2022-12-31T09:58:24.420Z,20.83
2022-12-31T09:58:35.979Z,20.84
2022-12-31T09:58:47.273Z,20.85
2022-12-31T09:58:58.819Z,20.85
2022-12-31T09:59:10.110Z,20.85
2022-12-31T09:59:21.650Z,20.85
2022-12-31T09:59:32.969Z,20.85
2022-12-31T09:59:44.529Z,20.86
2022-12-31T09:59:55.862Z,20.86
2022-12-31T10:00:07.456Z,20.87
2022-12-31T10:00:18.775Z,20.87
2022-12-31T10:00:30.342Z,20.88
2022-12-31T10:00:41.638Z,20.87
2022-12-31T10:00:53.242Z,20.88
2022-12-31T10:01:04.651Z,20.88
2022-12-31T10:01:16.441Z,20.88
2022-12-31T10:01:28.031Z,20.88
2022-12-31T10:01:39.805Z,20.89
2022-12-31T10:01:51.408Z,20.89
2022-12-31T10:02:03.276Z,20.90
2022-12-31T10:02:15.073Z,20.90
2022-12-31T10:02:27.044Z,20.90
2022-12-31T10:02:38.884Z,20.92
2022-12-31T10:02:50.388Z,20.92
2022-12-31T10:03:02.032Z,20.91
2022-12-31T10:03:13.443Z,20.92
2022-12-31T10:03:24.979Z,20.93
2022-12-31T10:03:36.313Z,20.93
2022-12-31T10:03:47.873Z,20.92
2022-12-31T10:03:59.165Z,20.93
2022-12-31T10:04:10.715Z,20.94
2022-12-31T10:04:23.291Z,20.94
2022-12-31T10:04:32.651Z,20.93
2022-12-31T10:04:44.204Z,20.94
2022-12-31T10:04:55.485Z,20.94
2022-12-31T10:05:07.028Z,20.95
2022-12-31T10:05:18.343Z,20.96
2022-12-31T10:05:29.941Z,20.96
2022-12-31T10:05:41.223Z,20.96
2022-12-31T10:05:52.779Z,20.96
2022-12-31T10:06:04.073Z,20.97
2022-12-31T10:06:15.628Z,20.97
2022-12-31T10:06:26.923Z,20.98
2022-12-31T10:06:38.477Z,20.97
2022-12-31T10:06:49.775Z,20.98
2022-12-31T10:07:01.332Z,20.99
2022-12-31T10:07:12.630Z,20.99
2022-12-31T10:07:24.175Z,21.00
2022-12-31T10:07:35.461Z,21.00
2022-12-31T10:07:52.350Z,21.01
2022-12-31T10:07:58.935Z,20.99
2022-12-31T10:08:10.216Z,21.00
2022-12-31T10:08:21.762Z,21.01
2022-12-31T10:08:33.044Z,21.01
2022-12-31T10:08:44.603Z,21.02
2022-12-31T10:08:55.891Z,21.02
2022-12-31T10:09:07.458Z,21.03
2022-12-31T10:09:18.750Z,21.03
2022-12-31T10:09:30.305Z,21.02
2022-12-31T10:09:41.604Z,21.04
2022-12-31T10:09:53.157Z,21.04
2022-12-31T10:10:04.444Z,21.04
2022-12-31T10:10:15.990Z,21.04
2022-12-31T10:10:27.289Z,21.05
2022-12-31T10:10:38.941Z,21.05
2022-12-31T10:10:50.218Z,21.05
2022-12-31T10:11:01.757Z,21.05
2022-12-31T10:11:13.041Z,21.05
2022-12-31T10:11:24.581Z,21.06
2022-12-31T10:11:35.864Z,21.07
2022-12-31T10:11:47.421Z,21.06
2022-12-31T10:11:58.729Z,21.07
2022-12-31T10:12:10.270Z,21.08
2022-12-31T10:12:21.561Z,21.07
2022-12-31T10:12:33.115Z,21.08
2022-12-31T10:12:44.400Z,21.08
2022-12-31T10:12:55.941Z,21.09
2022-12-31T10:13:07.237Z,21.09
2022-12-31T10:13:18.799Z,21.09
2022-12-31T10:13:30.083Z,21.10
2022-12-31T10:13:41.667Z,21.10
2022-12-31T10:13:52.955Z,21.11
2022-12-31T10:14:04.509Z,21.10
2022-12-31T10:14:15.809Z,21.11
2022-12-31T10:14:27.360Z,21.11
2022-12-31T10:14:43.695Z,21.11
2022-12-31T10:14:50.588Z,21.09
2022-12-31T10:15:01.898Z,21.10
2022-12-31T10:15:13.468Z,21.11
2022-12-31T10:15:24.760Z,21.11
2022-12-31T10:15:36.308Z,21.12
2022-12-31T10:15:47.643Z,21.12
2022-12-31T10:15:59.198Z,21.13
2022-12-31T10:16:10.519Z,21.12
2022-12-31T10:16:22.133Z,21.14
2022-12-31T10:16:33.519Z,21.13
2022-12-31T10:16:45.125Z,21.15
2022-12-31T10:16:56.532Z,21.15
2022-12-31T10:17:08.123Z,21.15
2022-12-31T10:17:19.420Z,21.15
2022-12-31T10:17:31.033Z,21.16
2022-12-31T10:17:42.337Z,21.16
2022-12-31T10:17:53.869Z,21.16
2022-12-31T10:18:05.155Z,21.16
2022-12-31T10:18:16.744Z,21.17
2022-12-31T10:18:28.043Z,21.16
2022-12-31T10:18:39.589Z,21.17
2022-12-31T10:18:50.941Z,21.18
2022-12-31T10:19:02.504Z,21.19
2022-12-31T10:19:13.833Z,21.18
2022-12-31T10:19:25.395Z,21.19
2022-12-31T10:19:36.697Z,21.18
2022-12-31T10:19:48.225Z,21.19
2022-12-31T10:19:59.514Z,21.19
2022-12-31T10:20:11.065Z,21.20
2022-12-31T10:20:22.355Z,21.20
2022-12-31T10:20:33.901Z,21.21
2022-12-31T10:20:45.659Z,21.20
2022-12-31T10:20:57.275Z,21.21
2022-12-31T10:21:08.566Z,21.21
2022-12-31T10:21:20.116Z,21.22
2022-12-31T10:21:31.393Z,21.22
2022-12-31T10:21:42.936Z,21.22
2022-12-31T10:21:54.221Z,21.22
2022-12-31T10:22:05.766Z,21.22
2022-12-31T10:22:17.046Z,21.23
2022-12-31T10:22:28.588Z,21.24
2022-12-31T10:22:39.883Z,21.23
2022-12-31T10:22:51.445Z,21.24
2022-12-31T10:23:02.750Z,21.24
2022-12-31T10:23:14.284Z,21.24
2022-12-31T10:23:25.597Z,21.25
2022-12-31T10:23:37.153Z,21.25
2022-12-31T10:23:48.456Z,21.25
2022-12-31T10:24:00.014Z,21.26
2022-12-31T10:24:11.317Z,21.26
2022-12-31T10:24:22.848Z,21.26
2022-12-31T10:24:34.145Z,21.26
2022-12-31T10:24:45.686Z,21.26
2022-12-31T10:24:56.977Z,21.27
2022-12-31T10:25:08.509Z,21.27
2022-12-31T10:25:19.834Z,21.28
2022-12-31T10:25:37.962Z,21.28
2022-12-31T10:25:43.311Z,21.26
2022-12-31T10:25:53.509Z,21.27
2022-12-31T10:26:04.859Z,21.27
2022-12-31T10:26:16.409Z,21.28
2022-12-31T10:26:27.707Z,21.28
2022-12-31T10:26:39.257Z,21.29
2022-12-31T10:26:53.455Z,21.29
2022-12-31T10:27:00.724Z,21.27
2022-12-31T10:27:12.015Z,21.29
2022-12-31T10:27:23.556Z,21.31
2022-12-31T10:27:34.853Z,21.30
2022-12-31T10:27:46.394Z,21.31
2022-12-31T10:27:57.679Z,21.31
2022-12-31T10:28:09.224Z,21.33
2022-12-31T10:28:20.501Z,21.32
2022-12-31T10:28:32.032Z,21.33
2022-12-31T10:28:43.315Z,21.33
2022-12-31T10:28:54.855Z,21.34
2022-12-31T10:29:06.145Z,21.35
2022-12-31T10:29:17.679Z,21.35
2022-12-31T10:29:28.963Z,21.35
2022-12-31T10:29:40.516Z,21.35
2022-12-31T10:29:51.814Z,21.36
2022-12-31T10:30:03.372Z,21.37
2022-12-31T10:30:14.676Z,21.37
2022-12-31T10:30:26.216Z,21.38
2022-12-31T10:30:37.547Z,21.38
2022-12-31T10:30:49.159Z,21.38
2022-12-31T10:31:00.547Z,21.39
2022-12-31T10:31:12.187Z,21.39
2022-12-31T10:31:23.551Z,21.39
2022-12-31T10:31:35.118Z,21.39
2022-12-31T10:31:46.412Z,21.39
2022-12-31T10:31:57.955Z,21.40
2022-12-31T10:32:09.241Z,21.40
2022-12-31T10:32:23.749Z,21.40
2022-12-31T10:32:32.724Z,21.39
2022-12-31T10:32:44.013Z,21.40
2022-12-31T10:32:55.579Z,21.41
2022-12-31T10:33:06.861Z,21.42
2022-12-31T10:33:18.408Z,21.42
2022-12-31T10:33:29.734Z,21.42
2022-12-31T10:33:41.289Z,21.42
2022-12-31T10:33:52.591Z,21.43
2022-12-31T10:34:04.142Z,21.43
2022-12-31T10:34:15.459Z,21.43
2022-12-31T10:34:26.999Z,21.44
2022-12-31T10:34:38.293Z,21.44
2022-12-31T10:34:49.854Z,21.45
2022-12-31T10:35:01.148Z,21.44
2022-12-31T10:35:12.699Z,21.45
2022-12-31T10:35:23.979Z,21.45
2022-12-31T10:35:35.536Z,21.46
2022-12-31T10:35:46.812Z,21.46
2022-12-31T10:35:58.361Z,21.46
2022-12-31T10:36:09.649Z,21.46
2022-12-31T10:36:21.290Z,21.46
2022-12-31T10:36:32.585Z,21.47
2022-12-31T10:36:44.131Z,21.47
2022-12-31T10:36:55.413Z,21.47
2022-12-31T10:37:06.943Z,21.48
2022-12-31T10:37:18.230Z,21.48
2022-12-31T10:37:29.776Z,21.49
2022-12-31T10:37:41.063Z,21.49
2022-12-31T10:37:52.604Z,21.50
2022-12-31T10:38:03.893Z,21.50
2022-12-31T10:38:15.444Z,21.50
2022-12-31T10:38:26.740Z,21.50
2022-12-31T10:38:38.280Z,21.50
2022-12-31T10:38:49.572Z,21.51
2022-12-31T10:39:01.121Z,21.51
2022-12-31T10:39:15.333Z,21.52
2022-12-31T10:39:24.780Z,21.49
2022-12-31T10:39:36.355Z,21.51
2022-12-31T10:39:47.663Z,21.52
2022-12-31T10:39:59.208Z,21.52
2022-12-31T10:40:10.518Z,21.53
2022-12-31T10:40:22.087Z,21.52
2022-12-31T10:40:33.378Z,21.52
2022-12-31T10:40:44.934Z,21.53
2022-12-31T10:40:56.230Z,21.53
2022-12-31T10:41:07.781Z,21.54
2022-12-31T10:41:19.061Z,21.54
2022-12-31T10:41:30.639Z,21.54
2022-12-31T10:41:41.923Z,21.55
2022-12-31T10:41:53.484Z,21.54
2022-12-31T10:42:04.766Z,21.55
2022-12-31T10:42:16.297Z,21.55
2022-12-31T10:42:27.584Z,21.55
2022-12-31T10:42:39.128Z,21.56
2022-12-31T10:42:50.408Z,21.57
2022-12-31T10:43:01.965Z,21.56
2022-12-31T10:43:13.253Z,21.57
2022-12-31T10:43:24.803Z,21.57
2022-12-31T10:43:36.106Z,21.57
2022-12-31T10:43:47.662Z,21.58
2022-12-31T10:43:58.947Z,21.58
2022-12-31T10:44:10.509Z,21.58
2022-12-31T10:44:21.814Z,21.59
2022-12-31T10:44:33.402Z,21.59
2022-12-31T10:44:44.697Z,21.59
2022-12-31T10:44:56.242Z,21.59
2022-12-31T10:45:07.528Z,21.60
2022-12-31T10:45:19.073Z,21.59
2022-12-31T10:45:30.387Z,21.60
2022-12-31T10:45:41.935Z,21.60
2022-12-31T10:45:53.321Z,21.61
2022-12-31T10:46:04.923Z,21.61
2022-12-31T10:46:22.459Z,21.61
2022-12-31T10:46:28.249Z,21.58
2022-12-31T10:46:39.659Z,21.60
2022-12-31T10:46:51.270Z,21.61
2022-12-31T10:47:02.598Z,21.61
2022-12-31T10:47:14.137Z,21.61
2022-12-31T10:47:25.435Z,21.62
2022-12-31T10:47:36.972Z,21.62
2022-12-31T10:47:48.261Z,21.62
2022-12-31T10:47:59.799Z,21.62
2022-12-31T10:48:11.079Z,21.63
2022-12-31T10:48:22.619Z,21.65
2022-12-31T10:48:33.920Z,21.64
2022-12-31T10:48:45.458Z,21.64
2022-12-31T10:48:56.755Z,21.64
2022-12-31T10:49:08.307Z,21.65
2022-12-31T10:49:19.589Z,21.65
2022-12-31T10:49:31.165Z,21.65
2022-12-31T10:49:42.472Z,21.65
2022-12-31T10:49:54.027Z,21.66
2022-12-31T10:50:05.344Z,21.66
2022-12-31T10:50:16.956Z,21.66
2022-12-31T10:50:28.365Z,21.66
2022-12-31T10:50:39.911Z,21.67
2022-12-31T10:50:51.245Z,21.67
2022-12-31T10:51:02.810Z,21.68
2022-12-31T10:51:14.106Z,21.68
2022-12-31T10:51:25.638Z,21.68
2022-12-31T10:51:36.922Z,21.69
2022-12-31T10:51:48.525Z,21.69
2022-12-31T10:51:59.817Z,21.69
2022-12-31T10:52:11.366Z,21.69
2022-12-31T10:52:22.646Z,21.69
2022-12-31T10:52:38.255Z,21.70
2022-12-31T10:52:46.138Z,21.69
2022-12-31T10:52:57.423Z,21.70
2022-12-31T10:53:08.968Z,21.71
2022-12-31T10:53:20.285Z,21.71
2022-12-31T10:53:31.820Z,21.71
2022-12-31T10:53:43.107Z,21.72
2022-12-31T10:53:54.647Z,21.72
2022-12-31T10:54:05.932Z,21.72
2022-12-31T10:54:17.474Z,21.73
2022-12-31T10:54:28.759Z,21.72
2022-12-31T10:54:40.302Z,21.73
2022-12-31T10:54:51.611Z,21.74
2022-12-31T10:55:03.171Z,21.73
2022-12-31T10:55:14.464Z,21.74
2022-12-31T10:55:26.039Z,21.74
2022-12-31T10:55:37.325Z,21.73
2022-12-31T10:55:48.865Z,21.74
2022-12-31T10:56:00.149Z,21.75
2022-12-31T10:56:11.701Z,21.75
2022-12-31T10:56:22.987Z,21.74
2022-12-31T10:56:34.542Z,21.76
2022-12-31T10:56:45.836Z,21.76
2022-12-31T10:56:57.427Z,21.76
2022-12-31T10:57:08.727Z,21.76
2022-12-31T10:57:20.273Z,21.76
2022-12-31T10:57:31.599Z,21.76
2022-12-31T10:57:43.148Z,21.77
2022-12-31T10:57:58.622Z,21.77
2022-12-31T10:58:06.374Z,21.75
2022-12-31T10:58:17.683Z,21.76
2022-12-31T10:58:29.220Z,21.78
2022-12-31T10:58:40.499Z,21.77
2022-12-31T10:58:52.111Z,21.77
2022-12-31T10:59:03.405Z,21.78
2022-12-31T10:59:14.947Z,21.79
2022-12-31T10:59:26.232Z,21.79
2022-12-31T10:59:37.778Z,21.80
2022-12-31T10:59:49.050Z,21.79
2022-12-31T11:00:00.604Z,21.80